Terminal Aerodrome Forecast
Issued by NWS Twin Cities, MN

Home | Current Version | Previous Version | Graphics & Text | Print | Product List | Glossary On
Versions: 1 2 3 4 5 6 7 8 9 10 11 12 13 14 15 16 17
000
FTUS43 KMPX 302107 AAC
TAFSTC
TAF AMD
KSTC 302107Z 3021/0118 35007KT P6SM VCSH SCT025 OVC035
      TEMPO 3021/3024 6SM -RASN BR OVC025
     FM010000 36006KT P6SM VCSH OVC008
     FM010200 32008KT 4SM -SN OVC008
     FM010600 32011KT P6SM OVC010
     FM011200 33008KT P6SM OVC015=

USA.gov is the U.S. government's official web portal to all federal, state and local government web resources and services.